Time;durP1;ratioP1;P1;durP2;ratioP2;P2;SDS_P1;SDS_P2;PMS_P1;PMS_P2;Temp;Humidity;BMP_temperature;BMP_pressure;BME280_temperature;BME280_humidity;BME280_pressure;Samples;Min_cycle;Max_cycle;Signal;HPM_P1;HPM_P2
2021/12/17 00:03:09;;;;;;;58.33;27.97;;;10.70;99.90;;;;;;5014699;28;20498;-78
2021/12/17 00:05:08;;;;;;;55.60;27.40;;;10.70;99.90;;;;;;5007921;28;20436;-78
2021/12/17 00:07:36;;;;;;;54.07;26.80;;;10.80;99.90;;;;;;5014451;28;20420;-78
2021/12/17 00:10:11;;;;;;;56.43;26.40;;;10.80;99.90;;;;;;5014355;28;20513;-78
2021/12/17 00:12:37;;;;;;;48.30;26.83;;;10.80;99.90;;;;;;5014584;28;20776;-78
2021/12/17 00:15:05;;;;;;;45.03;25.80;;;10.80;99.90;;;;;;5014977;28;20507;-79
2021/12/17 00:17:35;;;;;;;58.60;28.17;;;10.70;99.90;;;;;;5014786;28;20211;-78
2021/12/17 00:52:33;;;;;;;47.03;26.10;;;10.60;99.90;;;;;;5012001;28;20543;-81
2021/12/17 00:55:00;;;;;;;44.70;23.33;;;10.60;99.90;;;;;;4995237;28;20844;-81
2021/12/17 00:57:34;;;;;;;46.40;25.83;;;10.60;99.90;;;;;;4995196;28;20423;-81
2021/12/17 00:59:59;;;;;;;50.57;24.93;;;10.60;99.90;;;;;;4995636;28;20919;-81
2021/12/17 01:02:29;;;;;;;48.73;27.23;;;10.60;99.90;;;;;;4995062;28;20454;-80
2021/12/17 01:04:59;;;;;;;43.10;25.23;;;10.60;99.90;;;;;;4995306;28;20184;-81
2021/12/17 01:07:32;;;;;;;41.20;24.10;;;10.60;99.90;;;;;;4994093;28;20451;-80
2021/12/17 01:10:00;;;;;;;43.70;23.30;;;10.60;99.90;;;;;;4995559;28;20507;-81
2021/12/17 01:12:26;;;;;;;49.07;24.30;;;10.60;99.90;;;;;;4995355;28;20454;-80
2021/12/17 01:14:53;;;;;;;40.03;24.30;;;10.60;99.90;;;;;;4995406;28;20420;-81
2021/12/17 01:17:21;;;;;;;42.60;23.40;;;10.60;99.90;;;;;;4995405;28;20412;-80
2021/12/17 01:25:34;;;;;;;44.43;22.80;;;10.60;99.90;;;;;;5012935;28;20412;-81
2021/12/17 01:36:13;;;;;;;44.13;23.30;;;10.60;99.90;;;;;;5016865;28;20415;-81
2021/12/17 01:41:33;;;;;;;44.67;24.10;;;10.60;99.90;;;;;;5016139;28;20440;-80
2021/12/17 01:43:59;;;;;;;52.90;25.87;;;10.60;99.90;;;;;;5015954;28;20518;-80
2021/12/17 01:46:30;;;;;;;46.80;24.60;;;10.60;99.90;;;;;;4998706;28;20506;-80
2021/12/17 01:59:47;;;;;;;51.97;25.17;;;10.70;99.90;;;;;;4988291;28;20427;-82
2021/12/17 02:02:13;;;;;;;47.03;25.13;;;10.70;99.90;;;;;;5011622;28;20436;-83
2021/12/17 02:04:39;;;;;;;48.87;24.30;;;10.80;99.90;;;;;;5010135;28;20448;-83
2021/12/17 02:07:06;;;;;;;44.90;25.93;;;10.80;99.90;;;;;;5010247;28;20412;-82
2021/12/17 02:28:54;;;;;;;43.13;24.10;;;10.70;99.90;;;;;;5023792;28;20423;-82
2021/12/17 02:33:49;;;;;;;48.20;25.30;;;10.70;99.90;;;;;;5022620;28;21133;-81
2021/12/17 02:36:19;;;;;;;43.57;25.30;;;10.70;99.90;;;;;;5003377;28;20420;-81
2021/12/17 02:38:45;;;;;;;49.97;25.37;;;10.70;99.90;;;;;;5003385;28;20466;-81
2021/12/17 02:46:40;;;;;;;44.70;22.77;;;10.60;99.90;;;;;;5021786;28;20488;-81
2021/12/17 02:49:09;;;;;;;42.80;23.13;;;10.70;99.90;;;;;;5001390;28;20456;-81
2021/12/17 02:51:35;;;;;;;45.00;23.40;;;10.70;99.90;;;;;;5001627;28;20471;-81
2021/12/17 02:54:02;;;;;;;49.03;24.60;;;10.70;99.90;;;;;;5001567;28;20459;-81
2021/12/17 02:56:28;;;;;;;42.57;22.70;;;10.70;99.90;;;;;;5001214;28;20563;-81
2021/12/17 02:58:54;;;;;;;40.80;21.83;;;10.70;99.90;;;;;;5000958;28;20530;-82
2021/12/17 03:01:20;;;;;;;37.30;22.00;;;10.80;99.90;;;;;;5000853;28;20272;-81
2021/12/17 03:03:50;;;;;;;44.87;22.10;;;10.80;99.90;;;;;;5001271;28;20438;-81
2021/12/17 03:06:16;;;;;;;40.87;23.60;;;10.80;99.90;;;;;;5000171;28;20427;-82
2021/12/17 03:08:46;;;;;;;38.03;20.73;;;10.80;99.90;;;;;;5000243;28;20443;-81
2021/12/17 03:11:12;;;;;;;42.10;21.90;;;10.80;99.90;;;;;;4999352;28;20431;-81
2021/12/17 03:13:38;;;;;;;34.50;19.80;;;10.80;99.90;;;;;;4996759;28;20463;-81
2021/12/17 03:16:24;;;;;;;42.23;22.60;;;10.90;99.90;;;;;;4997010;28;20177;-81
2021/12/17 03:24:10;;;;;;;38.10;20.63;;;10.90;99.90;;;;;;5015205;28;20550;-80
2021/12/17 03:26:36;;;;;;;32.40;19.10;;;10.90;99.90;;;;;;4996252;28;20486;-80
2021/12/17 03:29:07;;;;;;;38.03;22.37;;;10.90;99.90;;;;;;4996518;28;20546;-80
2021/12/17 03:31:34;;;;;;;36.53;18.03;;;10.90;99.90;;;;;;4996677;28;20424;-81
2021/12/17 03:34:22;;;;;;;35.93;19.53;;;10.90;99.90;;;;;;4996727;28;20986;-81
2021/12/17 03:36:53;;;;;;;36.07;19.27;;;10.90;99.90;;;;;;5013671;28;20428;-80
2021/12/17 03:39:21;;;;;;;39.17;18.33;;;11.00;99.90;;;;;;4995951;28;20498;-81
2021/12/17 03:41:52;;;;;;;34.03;18.27;;;10.90;99.90;;;;;;4995965;28;20439;-81
2021/12/17 03:44:20;;;;;;;37.47;19.80;;;10.90;99.90;;;;;;4996473;28;20524;-81
2021/12/17 03:46:48;;;;;;;30.00;16.80;;;11.00;99.90;;;;;;4996199;28;20416;-81
2021/12/17 03:49:18;;;;;;;30.47;18.80;;;11.00;99.90;;;;;;4996024;28;20526;-80
2021/12/17 03:51:50;;;;;;;31.73;17.30;;;11.00;99.90;;;;;;4995833;28;20870;-81
2021/12/17 03:54:17;;;;;;;37.17;17.33;;;11.00;99.90;;;;;;4995401;28;20466;-81
2021/12/17 03:56:43;;;;;;;30.87;19.43;;;11.00;99.90;;;;;;4996296;28;20420;-81
2021/12/17 03:59:10;;;;;;;28.70;16.93;;;11.00;99.90;;;;;;4996202;28;20413;-81
2021/12/17 04:01:41;;;;;;;34.73;17.43;;;11.00;99.90;;;;;;4996002;28;20416;-80
2021/12/17 04:04:07;;;;;;;32.63;17.00;;;11.00;99.90;;;;;;4995927;28;20477;-81
2021/12/17 04:06:34;;;;;;;36.50;17.60;;;11.00;99.90;;;;;;4995807;28;20431;-80
2021/12/17 04:09:00;;;;;;;30.37;15.43;;;11.00;99.90;;;;;;4996152;28;20423;-80
2021/12/17 04:11:25;;;;;;;34.43;17.80;;;11.00;99.90;;;;;;4995860;28;20419;-80
2021/12/17 04:13:56;;;;;;;30.70;16.50;;;11.00;99.90;;;;;;4995733;28;20235;-80
2021/12/17 04:16:27;;;;;;;29.70;16.50;;;11.00;99.90;;;;;;4995594;28;20187;-81
2021/12/17 04:18:53;;;;;;;31.37;16.27;;;10.90;99.90;;;;;;4995467;28;20780;-81
2021/12/17 04:21:19;;;;;;;38.60;18.83;;;10.90;99.90;;;;;;4995516;28;20421;-81
2021/12/17 04:23:47;;;;;;;38.80;19.90;;;10.90;99.90;;;;;;4995801;28;20420;-81
2021/12/17 04:26:15;;;;;;;38.30;18.30;;;10.90;99.90;;;;;;4995656;28;20439;-81
2021/12/17 04:28:47;;;;;;;44.10;19.73;;;10.90;99.90;;;;;;4995529;28;20854;-81
2021/12/17 04:31:14;;;;;;;42.60;21.87;;;10.90;99.90;;;;;;4995462;28;20420;-81
2021/12/17 04:33:42;;;;;;;39.50;20.77;;;10.90;99.90;;;;;;4995643;28;21021;-81
2021/12/17 04:36:10;;;;;;;41.43;21.80;;;10.90;99.90;;;;;;4996187;28;20420;-81
2021/12/17 04:38:36;;;;;;;37.73;19.13;;;10.90;99.90;;;;;;4995623;28;20427;-81
2021/12/17 04:41:46;;;;;;;32.60;18.03;;;10.90;99.90;;;;;;4994886;28;20836;-81
2021/12/17 04:57:20;;;;;;;39.13;19.07;;;10.90;99.90;;;;;;5026309;28;20459;-82
2021/12/17 04:59:47;;;;;;;37.20;21.13;;;10.90;99.90;;;;;;5008340;28;20443;-82
2021/12/17 05:02:14;;;;;;;35.10;18.60;;;10.90;99.90;;;;;;5007510;28;20432;-82
2021/12/17 05:04:41;;;;;;;34.93;18.50;;;10.90;99.90;;;;;;5007372;28;20511;-82
2021/12/17 05:07:08;;;;;;;38.20;20.43;;;10.80;99.90;;;;;;5007968;28;20471;-81
2021/12/17 05:09:50;;;;;;;37.27;19.80;;;10.80;99.90;;;;;;5009778;28;20436;-81
2021/12/17 05:20:44;;;;;;;39.17;19.70;;;10.70;99.90;;;;;;5025536;28;20821;-82
2021/12/17 05:23:09;;;;;;;37.57;19.40;;;10.70;99.90;;;;;;5006613;28;20431;-81
2021/12/17 05:25:35;;;;;;;31.40;17.80;;;10.70;99.90;;;;;;5007218;28;20438;-82
2021/12/17 05:28:02;;;;;;;32.40;18.27;;;10.70;99.90;;;;;;5006060;28;20250;-81
2021/12/17 05:30:40;;;;;;;33.20;19.33;;;10.70;99.90;;;;;;5006230;28;20184;-81
2021/12/17 05:33:06;;;;;;;36.67;19.00;;;10.60;99.90;;;;;;5005265;28;20866;-81
2021/12/17 05:35:35;;;;;;;36.20;18.97;;;10.60;99.90;;;;;;5005043;28;20431;-81
2021/12/17 05:38:00;;;;;;;41.80;23.90;;;10.60;99.90;;;;;;5004793;28;20181;-81
2021/12/17 05:40:26;;;;;;;34.03;20.80;;;10.50;99.90;;;;;;5004135;28;20578;-81
2021/12/17 05:42:55;;;;;;;41.70;21.53;;;10.50;99.90;;;;;;5003671;28;20250;-81
2021/12/17 05:48:06;;;;;;;39.13;21.30;;;10.50;99.90;;;;;;5021996;28;20424;-81
2021/12/17 05:50:34;;;;;;;39.27;21.00;;;10.50;99.90;;;;;;5002663;28;20923;-81
2021/12/17 05:53:00;;;;;;;39.93;19.80;;;10.50;99.90;;;;;;5002334;28;20471;-82
2021/12/17 05:55:26;;;;;;;40.43;21.40;;;10.50;99.90;;;;;;5001787;28;20439;-81
2021/12/17 05:57:53;;;;;;;37.77;20.13;;;10.50;99.90;;;;;;5001976;28;20520;-82
2021/12/17 06:00:21;;;;;;;40.33;21.70;;;10.50;99.90;;;;;;5001736;28;20443;-81
2021/12/17 06:02:47;;;;;;;42.27;22.97;;;10.50;99.90;;;;;;5001679;28;20439;-81
2021/12/17 06:05:17;;;;;;;41.13;20.87;;;10.50;99.90;;;;;;4998505;28;20615;-81
2021/12/17 06:07:43;;;;;;;38.90;21.10;;;10.50;99.90;;;;;;4998210;28;20446;-81
2021/12/17 06:10:10;;;;;;;38.63;21.97;;;10.50;99.90;;;;;;4998012;28;20466;-81
2021/12/17 06:12:40;;;;;;;39.37;20.63;;;10.50;99.90;;;;;;4997968;28;21073;-81
2021/12/17 06:15:09;;;;;;;35.07;20.03;;;10.50;99.90;;;;;;4998353;28;20687;-81
2021/12/17 06:17:34;;;;;;;46.80;20.90;;;10.40;99.90;;;;;;4997418;28;20514;-81
2021/12/17 06:20:00;;;;;;;36.83;20.53;;;10.40;99.90;;;;;;4997800;28;20504;-81
2021/12/17 06:22:26;;;;;;;41.50;21.80;;;10.50;99.90;;;;;;4997940;28;20232;-81
2021/12/17 06:24:52;;;;;;;40.50;19.97;;;10.50;99.90;;;;;;4997993;28;20189;-81
2021/12/17 06:27:19;;;;;;;40.53;22.13;;;10.50;99.90;;;;;;5029643;23;20235;-82
2021/12/17 06:29:45;;;;;;;37.90;20.27;;;10.40;99.90;;;;;;5034145;28;20495;-81
2021/12/17 06:32:11;;;;;;;40.17;22.07;;;10.40;99.90;;;;;;5034233;28;20484;-82
2021/12/17 06:34:38;;;;;;;35.20;19.10;;;10.40;99.90;;;;;;5034147;28;20207;-81
2021/12/17 06:37:05;;;;;;;35.13;19.57;;;10.40;99.90;;;;;;5023345;28;20478;-82
2021/12/17 06:39:31;;;;;;;41.50;19.60;;;10.40;99.90;;;;;;5012846;28;20416;-81
2021/12/17 06:41:57;;;;;;;45.63;21.43;;;10.40;99.90;;;;;;5006117;28;20907;-81
2021/12/17 06:44:25;;;;;;;38.60;20.73;;;10.40;99.90;;;;;;5014185;28;20412;-82
2021/12/17 07:09:06;;;;;;;39.30;20.57;;;10.40;99.90;;;;;;5014086;28;20669;-84
2021/12/17 07:10:44;;;;;;;37.17;20.60;;;10.40;99.90;;;;;;5013515;28;20427;-84
2021/12/17 07:21:40;;;;;;;39.17;21.50;;;10.50;99.90;;;;;;5013931;28;20448;-84
2021/12/17 07:32:34;;;;;;;39.53;21.00;;;10.40;99.90;;;;;;5014256;28;20427;-83
2021/12/17 07:39:56;;;;;;;57.90;26.53;;;10.40;99.90;;;;;;5013815;28;20420;-84
2021/12/17 07:42:23;;;;;;;48.30;24.90;;;10.40;99.90;;;;;;5013577;28;20495;-83
2021/12/17 07:44:48;;;;;;;42.20;24.40;;;10.50;99.90;;;;;;5013496;28;20415;-83
2021/12/17 07:47:14;;;;;;;49.30;26.63;;;10.50;99.90;;;;;;4995920;28;20455;-83
2021/12/17 07:49:40;;;;;;;41.90;24.13;;;10.30;99.90;;;;;;4995844;28;20275;-84
2021/12/17 07:52:06;;;;;;;45.33;22.53;;;10.20;99.90;;;;;;4995730;28;20177;-83
2021/12/17 07:54:31;;;;;;;42.80;21.20;;;10.20;99.90;;;;;;4995823;28;20691;-83
2021/12/17 07:56:57;;;;;;;49.13;23.77;;;10.30;99.90;;;;;;5013196;28;20947;-84
2021/12/17 07:59:23;;;;;;;43.50;23.30;;;10.40;99.90;;;;;;5013188;28;20177;-84
2021/12/17 08:01:48;;;;;;;48.57;23.07;;;10.40;99.90;;;;;;5013168;28;20256;-84
2021/12/17 08:04:14;;;;;;;46.50;24.17;;;10.40;99.90;;;;;;5011941;28;20423;-83
2021/12/17 08:06:40;;;;;;;44.80;25.70;;;10.50;99.90;;;;;;5013028;28;20211;-83
2021/12/17 08:09:06;;;;;;;42.67;22.90;;;10.50;99.90;;;;;;5012831;28;20185;-84
2021/12/17 08:11:38;;;;;;;39.90;22.60;;;10.50;99.90;;;;;;4995205;28;20177;-84
2021/12/17 08:14:07;;;;;;;37.43;21.43;;;10.60;99.90;;;;;;5011373;28;20468;-83
2021/12/17 08:16:55;;;;;;;38.00;20.90;;;10.60;99.90;;;;;;5012933;28;20507;-84
2021/12/17 08:30:08;;;;;;;47.00;23.50;;;10.60;99.90;;;;;;5012587;28;20447;-83
2021/12/17 08:32:34;;;;;;;40.13;21.03;;;10.60;99.90;;;;;;5012659;28;20965;-83
2021/12/17 08:35:00;;;;;;;47.17;23.70;;;10.60;99.90;;;;;;5011156;28;20467;-83
2021/12/17 08:37:28;;;;;;;45.73;24.43;;;10.60;99.90;;;;;;5012191;28;20196;-84
2021/12/17 08:39:53;;;;;;;45.63;25.73;;;10.60;99.90;;;;;;4994385;28;20233;-84
2021/12/17 08:42:19;;;;;;;46.77;25.57;;;10.60;99.90;;;;;;5012132;28;20416;-84
2021/12/17 08:44:44;;;;;;;43.37;24.53;;;10.60;99.90;;;;;;5011346;28;20244;-83
2021/12/17 08:47:10;;;;;;;55.03;26.93;;;10.50;99.90;;;;;;5012295;28;20205;-82
2021/12/17 08:49:40;;;;;;;48.87;25.50;;;10.60;99.90;;;;;;5012086;28;20273;-82
2021/12/17 08:52:07;;;;;;;51.50;26.90;;;10.50;99.90;;;;;;5012289;28;20957;-83
2021/12/17 08:54:33;;;;;;;53.23;26.63;;;10.60;99.90;;;;;;5012348;28;20491;-82
2021/12/17 08:56:58;;;;;;;48.47;24.93;;;10.60;99.90;;;;;;5011781;28;20462;-83
2021/12/17 08:59:24;;;;;;;58.17;27.70;;;10.60;99.90;;;;;;5010670;28;20868;-83
2021/12/17 09:01:49;;;;;;;66.07;30.27;;;10.60;99.90;;;;;;5011605;28;20180;-85
2021/12/17 09:04:16;;;;;;;58.87;28.07;;;10.60;99.90;;;;;;5011927;28;20230;-83
2021/12/17 09:06:42;;;;;;;58.50;28.27;;;10.60;99.90;;;;;;5011723;28;20258;-83
2021/12/17 09:09:08;;;;;;;54.87;29.57;;;10.70;99.90;;;;;;5011843;28;20412;-82
2021/12/17 09:11:34;;;;;;;60.10;28.30;;;10.60;99.90;;;;;;5010470;28;20923;-82
2021/12/17 09:14:01;;;;;;;58.47;31.60;;;10.60;99.90;;;;;;5011718;28;20200;-83
2021/12/17 09:16:27;;;;;;;54.20;26.07;;;10.60;99.90;;;;;;5010576;28;20436;-82
2021/12/17 09:18:54;;;;;;;67.20;29.90;;;10.70;99.90;;;;;;5012094;28;20422;-82
2021/12/17 09:21:20;;;;;;;56.20;27.67;;;10.70;99.90;;;;;;5018109;28;20230;-84
2021/12/17 09:23:46;;;;;;;51.83;28.73;;;10.70;99.90;;;;;;5016760;28;20427;-84
2021/12/17 09:26:14;;;;;;;59.73;27.93;;;10.80;99.90;;;;;;5016293;28;20207;-84
2021/12/17 09:28:40;;;;;;;56.87;28.00;;;10.70;99.90;;;;;;5019144;28;20404;-85
2021/12/17 09:31:11;;;;;;;55.17;27.83;;;10.80;99.90;;;;;;5016651;28;20456;-84
2021/12/17 09:33:37;;;;;;;62.93;28.90;;;10.80;99.90;;;;;;5015504;28;20221;-84
2021/12/17 09:36:04;;;;;;;54.57;26.30;;;10.80;99.90;;;;;;4998254;28;20415;-82
2021/12/17 09:38:30;;;;;;;59.03;32.72;;;10.90;99.90;;;;;;5014716;28;20414;-84
2021/12/17 09:40:56;;;;;;;65.83;33.07;;;10.90;99.90;;;;;;5015073;28;20508;-84
2021/12/17 09:43:22;;;;;;;56.67;28.87;;;11.00;99.90;;;;;;5015896;28;20420;-83
2021/12/17 09:45:47;;;;;;;67.37;30.40;;;11.00;99.90;;;;;;5014242;28;20426;-84
2021/12/17 09:48:14;;;;;;;61.43;30.90;;;11.00;99.90;;;;;;4997908;28;20189;-84
2021/12/17 09:50:40;;;;;;;68.03;29.13;;;11.00;99.90;;;;;;5013920;28;20240;-84
2021/12/17 09:53:05;;;;;;;61.67;29.53;;;11.00;99.90;;;;;;5016733;28;20513;-82
2021/12/17 09:55:31;;;;;;;66.47;31.57;;;11.00;99.90;;;;;;5018124;28;20902;-85
2021/12/17 09:57:56;;;;;;;57.20;29.77;;;11.00;99.90;;;;;;5014691;28;20259;-82
2021/12/17 10:00:26;;;;;;;69.87;28.93;;;11.00;99.90;;;;;;5017790;28;20696;-83
2021/12/17 10:02:54;;;;;;;62.40;28.73;;;11.00;99.90;;;;;;5017787;28;20177;-84
2021/12/17 10:05:32;;;;;;;73.50;30.47;;;11.00;99.90;;;;;;5018289;28;20443;-83
2021/12/17 10:08:02;;;;;;;65.77;29.77;;;11.00;99.90;;;;;;5016650;28;20470;-84
2021/12/17 10:10:43;;;;;;;63.27;28.57;;;11.00;99.90;;;;;;5016654;28;20412;-85
2021/12/17 10:13:12;;;;;;;65.30;29.73;;;11.00;99.90;;;;;;5016200;28;20460;-84
2021/12/17 10:15:41;;;;;;;58.03;26.63;;;11.00;99.90;;;;;;5015435;28;20414;-84
2021/12/17 10:18:07;;;;;;;67.37;26.70;;;11.00;99.90;;;;;;5014482;28;20529;-83
2021/12/17 10:20:39;;;;;;;59.10;27.13;;;11.00;99.90;;;;;;5015372;28;20440;-82
2021/12/17 10:23:07;;;;;;;59.30;28.90;;;11.00;99.90;;;;;;5015517;28;20647;-83
2021/12/17 10:25:35;;;;;;;71.53;30.90;;;11.00;99.90;;;;;;5015951;28;20423;-83
2021/12/17 10:28:05;;;;;;;72.97;30.07;;;11.10;99.90;;;;;;5014522;28;20464;-82
2021/12/17 10:30:33;;;;;;;65.37;28.37;;;11.10;99.90;;;;;;5015700;28;20428;-83
2021/12/17 10:33:01;;;;;;;59.70;27.67;;;11.10;99.90;;;;;;5016124;28;20408;-84
2021/12/17 10:35:33;;;;;;;58.00;26.97;;;11.10;99.90;;;;;;5014705;28;20409;-84
2021/12/17 10:38:03;;;;;;;60.30;30.27;;;11.10;99.90;;;;;;5013693;28;20527;-82
2021/12/17 10:40:37;;;;;;;70.87;29.33;;;11.10;99.90;;;;;;5013564;28;20405;-82
2021/12/17 10:43:22;;;;;;;67.70;28.70;;;11.10;99.90;;;;;;5015424;28;20396;-82
2021/12/17 10:46:07;;;;;;;65.90;29.63;;;11.10;99.90;;;;;;5007883;28;20582;-81
2021/12/17 10:48:50;;;;;;;66.80;29.10;;;11.10;99.90;;;;;;4995069;28;20495;-81
2021/12/17 10:51:32;;;;;;;66.30;26.83;;;11.20;99.90;;;;;;4994131;28;20763;-82
2021/12/17 10:54:19;;;;;;;62.43;26.53;;;11.10;99.90;;;;;;4993551;28;20453;-82
2021/12/17 10:56:49;;;;;;;65.10;28.63;;;11.00;99.90;;;;;;4995241;28;20441;-82
2021/12/17 10:59:18;;;;;;;68.10;30.20;;;11.00;99.90;;;;;;4994538;28;20409;-81
2021/12/17 11:01:48;;;;;;;69.93;27.70;;;11.10;99.90;;;;;;4994522;28;20413;-81
2021/12/17 11:04:16;;;;;;;62.70;24.73;;;11.10;99.90;;;;;;4992713;28;20471;-81
2021/12/17 11:07:13;;;;;;;56.83;24.23;;;11.10;99.90;;;;;;4994120;28;20441;-81
2021/12/17 11:09:55;;;;;;;57.17;23.93;;;11.20;99.90;;;;;;4992830;28;20421;-81
2021/12/17 11:12:39;;;;;;;49.43;22.60;;;11.10;99.90;;;;;;5005724;28;20424;-81
2021/12/17 11:15:14;;;;;;;57.40;24.87;;;11.10;99.90;;;;;;5013461;28;20456;-81
2021/12/17 11:17:43;;;;;;;53.43;23.60;;;11.10;99.90;;;;;;5013687;28;20435;-82
2021/12/17 11:20:10;;;;;;;64.93;22.63;;;11.10;99.90;;;;;;5013360;28;20496;-81
2021/12/17 11:22:40;;;;;;;62.20;27.20;;;11.10;99.90;;;;;;5013949;28;20931;-81
2021/12/17 11:25:07;;;;;;;57.30;24.00;;;11.00;99.90;;;;;;5013239;28;20412;-81
2021/12/17 11:27:33;;;;;;;63.30;26.70;;;11.00;99.90;;;;;;5012831;28;20974;-82
2021/12/17 11:30:00;;;;;;;54.70;22.80;;;11.00;99.90;;;;;;5013287;28;20934;-81
2021/12/17 11:32:26;;;;;;;53.93;20.50;;;11.10;99.90;;;;;;4995595;28;20854;-81
2021/12/17 11:34:53;;;;;;;54.93;23.80;;;11.00;99.90;;;;;;5013115;28;20549;-81
2021/12/17 11:37:20;;;;;;;58.17;23.70;;;11.00;99.90;;;;;;4995555;28;20440;-81
2021/12/17 11:39:53;;;;;;;46.20;20.97;;;10.80;99.90;;;;;;4995261;28;20757;-81
2021/12/17 11:42:25;;;;;;;47.97;24.10;;;11.00;99.90;;;;;;5012887;28;20436;-82
2021/12/17 11:47:41;;;;;;;52.93;22.17;;;11.10;99.90;;;;;;5012998;28;20555;-81
2021/12/17 11:50:09;;;;;;;50.40;23.00;;;11.00;99.90;;;;;;4995286;28;20990;-83
2021/12/17 11:52:35;;;;;;;43.13;21.53;;;11.00;99.90;;;;;;5012570;28;20938;-83
2021/12/17 11:55:24;;;;;;;46.43;20.97;;;11.00;99.90;;;;;;4995409;28;20451;-81
2021/12/17 11:57:52;;;;;;;45.60;19.97;;;11.00;99.90;;;;;;4995508;28;20196;-82
2021/12/17 12:00:33;;;;;;;45.33;19.47;;;10.90;99.90;;;;;;4995197;28;20499;-82
2021/12/17 12:03:23;;;;;;;46.97;20.80;;;10.90;99.90;;;;;;5012888;28;20458;-82
2021/12/17 12:05:58;;;;;;;46.17;21.87;;;11.00;99.90;;;;;;5012234;28;20887;-82
2021/12/17 12:09:04;;;;;;;43.73;20.77;;;11.00;99.90;;;;;;5012623;28;20474;-82
2021/12/17 12:11:28;;;;;;;39.00;20.50;;;11.00;99.90;;;;;;5011724;28;20427;-82
2021/12/17 12:13:56;;;;;;;39.53;18.67;;;11.00;99.90;;;;;;5012492;28;20458;-82
2021/12/17 12:16:22;;;;;;;36.97;19.07;;;11.10;99.90;;;;;;5011466;28;20440;-82
2021/12/17 12:18:50;;;;;;;41.60;18.97;;;11.10;99.90;;;;;;4995728;28;20423;-82
2021/12/17 12:21:21;;;;;;;44.53;19.43;;;11.20;99.90;;;;;;5014398;28;20444;-83
2021/12/17 12:23:56;;;;;;;36.83;18.20;;;11.20;99.90;;;;;;5013022;28;20400;-84
2021/12/17 12:26:32;;;;;;;40.00;17.80;;;11.20;99.90;;;;;;4994768;28;20901;-84
2021/12/17 12:29:03;;;;;;;36.00;18.17;;;11.20;99.90;;;;;;4995363;28;20423;-84
2021/12/17 12:31:32;;;;;;;35.40;18.37;;;11.20;99.90;;;;;;5012672;28;20968;-84
2021/12/17 12:34:00;;;;;;;36.97;17.70;;;11.20;99.90;;;;;;5013235;28;20458;-84
2021/12/17 12:36:52;;;;;;;33.77;16.63;;;11.20;99.90;;;;;;4995024;28;20472;-84
2021/12/17 12:39:20;;;;;;;38.77;16.70;;;11.30;99.90;;;;;;4995020;28;20439;-84
2021/12/17 12:41:55;;;;;;;39.83;17.40;;;11.30;99.90;;;;;;4994469;28;20543;-84
2021/12/17 12:44:41;;;;;;;35.03;17.37;;;11.30;99.90;;;;;;4995311;28;20801;-84
2021/12/17 12:47:27;;;;;;;29.57;15.40;;;11.20;99.90;;;;;;4994354;28;20447;-84
2021/12/17 12:49:54;;;;;;;34.97;15.30;;;11.30;99.90;;;;;;4980954;28;20442;-85
2021/12/17 12:52:27;;;;;;;35.43;17.60;;;11.30;99.90;;;;;;5011932;28;20989;-85
2021/12/17 12:55:07;;;;;;;35.00;17.83;;;11.20;99.90;;;;;;5012068;28;20467;-85
2021/12/17 12:57:33;;;;;;;36.57;16.60;;;11.20;99.90;;;;;;4994627;28;20444;-85
2021/12/17 13:00:05;;;;;;;33.20;18.63;;;11.20;99.90;;;;;;5011902;28;20433;-84
2021/12/17 13:02:32;;;;;;;37.17;17.07;;;11.20;99.90;;;;;;5011005;28;20420;-85
2021/12/17 13:04:59;;;;;;;30.63;14.97;;;11.20;99.90;;;;;;5010806;28;20424;-84
2021/12/17 13:07:41;;;;;;;29.80;16.77;;;11.20;99.90;;;;;;5010748;28;20621;-84
2021/12/17 13:10:09;;;;;;;37.53;17.13;;;11.20;99.90;;;;;;5011746;28;20412;-82
2021/12/17 13:12:36;;;;;;;23.63;14.20;;;11.20;99.90;;;;;;5010775;28;20463;-82
2021/12/17 13:15:19;;;;;;;30.83;16.93;;;11.20;99.90;;;;;;5012392;28;20462;-83
2021/12/17 13:24:05;;;;;;;27.87;14.13;;;11.20;99.90;;;;;;5012647;28;20392;-83
2021/12/17 13:26:30;;;;;;;18.53;12.40;;;11.20;99.90;;;;;;5012315;28;20458;-83
2021/12/17 13:29:06;;;;;;;23.73;11.77;;;11.30;99.90;;;;;;5014697;28;20516;-82
2021/12/17 13:31:50;;;;;;;25.43;12.33;;;11.30;99.90;;;;;;5014693;28;20184;-82
2021/12/17 13:34:27;;;;;;;18.37;10.57;;;11.30;99.90;;;;;;5016010;28;20539;-82
2021/12/17 13:37:05;;;;;;;16.47;9.30;;;11.30;99.90;;;;;;5014434;28;20443;-82
2021/12/17 13:39:51;;;;;;;18.00;11.17;;;11.20;99.90;;;;;;4998249;28;20490;-82
2021/12/17 13:42:22;;;;;;;16.37;10.03;;;11.20;99.90;;;;;;5001664;28;20424;-82
2021/12/17 13:44:57;;;;;;;20.07;9.50;;;11.30;99.90;;;;;;5014468;28;20436;-82
2021/12/17 13:47:25;;;;;;;13.70;8.90;;;11.20;99.90;;;;;;5014285;28;20445;-82
2021/12/17 13:49:58;;;;;;;13.50;9.70;;;11.20;99.90;;;;;;5015324;28;20466;-82
2021/12/17 13:52:29;;;;;;;13.37;8.03;;;11.30;99.90;;;;;;5015429;28;20524;-82
2021/12/17 13:54:57;;;;;;;10.17;7.53;;;11.20;99.90;;;;;;5015060;28;20458;-82
2021/12/17 13:57:26;;;;;;;12.80;7.13;;;11.20;99.90;;;;;;5015005;28;20482;-82
2021/12/17 13:59:52;;;;;;;15.20;7.40;;;11.20;99.90;;;;;;5015318;28;20806;-83
2021/12/17 14:02:20;;;;;;;12.10;6.67;;;11.30;99.90;;;;;;5016978;28;20450;-83
2021/12/17 14:05:05;;;;;;;12.83;6.70;;;11.40;99.90;;;;;;4998955;28;20439;-83
2021/12/17 14:07:32;;;;;;;12.40;6.70;;;11.40;99.90;;;;;;5016495;28;20466;-83
2021/12/17 14:10:10;;;;;;;10.73;8.10;;;11.40;99.90;;;;;;5014807;28;20420;-84
2021/12/17 14:12:39;;;;;;;10.90;7.20;;;11.40;99.90;;;;;;5015303;28;20428;-83
2021/12/17 14:15:09;;;;;;;10.23;6.13;;;11.40;99.90;;;;;;4998171;28;20472;-84
2021/12/17 14:17:43;;;;;;;10.17;6.27;;;11.40;99.90;;;;;;4998862;28;20511;-84
2021/12/17 14:20:23;;;;;;;10.10;6.20;;;11.30;99.90;;;;;;5015994;28;20928;-85
2021/12/17 14:22:59;;;;;;;10.47;5.97;;;11.40;99.90;;;;;;5009623;28;20461;-83
2021/12/17 14:25:40;;;;;;;8.40;6.63;;;11.30;99.90;;;;;;5004964;28;20539;-83
2021/12/17 14:28:30;;;;;;;10.10;6.07;;;11.30;99.90;;;;;;4999666;28;21185;-83
2021/12/17 14:31:02;;;;;;;12.93;7.00;;;11.30;99.90;;;;;;5003874;28;20435;-83
2021/12/17 14:33:42;;;;;;;12.00;7.50;;;11.30;99.90;;;;;;5016833;28;20903;-84
2021/12/17 14:36:17;;;;;;;11.80;6.90;;;11.20;99.90;;;;;;5013829;28;20440;-83
2021/12/17 14:38:47;;;;;;;10.40;6.80;;;11.30;99.90;;;;;;5015745;28;20407;-85
2021/12/17 14:45:17;;;;;;;11.43;7.20;;;11.30;99.90;;;;;;4937888;28;20487;-85
2021/12/17 14:47:52;;;;;;;10.70;6.20;;;11.20;99.90;;;;;;5006848;28;20458;-82
2021/12/17 15:01:36;;;;;;;8.27;5.70;;;11.20;99.90;;;;;;5014302;28;20448;-83
2021/12/17 15:04:02;;;;;;;10.17;5.87;;;11.10;99.90;;;;;;4997682;28;20923;-83
2021/12/17 15:06:28;;;;;;;9.27;5.70;;;11.10;99.90;;;;;;5014621;28;20486;-82
2021/12/17 15:08:53;;;;;;;10.40;6.30;;;11.10;99.90;;;;;;4996360;28;20192;-83
2021/12/17 15:11:30;;;;;;;9.77;6.17;;;11.10;99.90;;;;;;5014166;28;20181;-83
2021/12/17 15:13:56;;;;;;;9.40;6.40;;;11.10;99.90;;;;;;5014586;28;20235;-84
2021/12/17 15:16:30;;;;;;;8.67;5.30;;;11.00;99.90;;;;;;4996946;28;20440;-84
2021/12/17 15:19:03;;;;;;;10.23;5.70;;;11.00;99.90;;;;;;4997351;28;20173;-84
2021/12/17 15:21:29;;;;;;;9.83;6.50;;;11.00;99.90;;;;;;5014492;28;20412;-83
2021/12/17 15:24:04;;;;;;;8.40;5.40;;;11.00;99.90;;;;;;4996181;28;20420;-83
2021/12/17 15:26:29;;;;;;;12.93;6.23;;;10.90;99.90;;;;;;4996076;28;20220;-83
2021/12/17 15:28:55;;;;;;;12.90;6.53;;;10.90;99.90;;;;;;4995903;28;20474;-82
2021/12/17 15:31:20;;;;;;;10.40;6.07;;;10.90;99.90;;;;;;4995242;28;20181;-83
2021/12/17 15:33:46;;;;;;;8.67;6.10;;;10.90;99.90;;;;;;5008088;28;20216;-83
2021/12/17 15:36:12;;;;;;;10.40;6.53;;;10.80;99.90;;;;;;5010541;22;20206;-78
2021/12/17 15:38:38;;;;;;;10.57;6.37;;;10.70;99.90;;;;;;4994820;28;20189;-78
2021/12/17 15:41:03;;;;;;;8.03;5.30;;;10.70;99.90;;;;;;5013583;28;20243;-78
2021/12/17 15:43:29;;;;;;;10.20;6.60;;;10.70;99.90;;;;;;4995436;28;20232;-78
2021/12/17 15:45:55;;;;;;;10.20;6.57;;;10.60;99.90;;;;;;4997386;28;20189;-78
2021/12/17 15:48:23;;;;;;;11.30;7.07;;;10.60;99.90;;;;;;4996523;28;20640;-78
2021/12/17 15:50:49;;;;;;;10.00;7.53;;;10.60;99.90;;;;;;5012870;28;20420;-78
2021/12/17 15:53:14;;;;;;;10.00;7.50;;;10.50;99.90;;;;;;4997737;28;20567;-78
2021/12/17 15:55:41;;;;;;;9.90;7.37;;;10.50;99.90;;;;;;4997186;28;20185;-78
2021/12/17 15:58:08;;;;;;;11.10;7.33;;;10.50;99.90;;;;;;4997785;28;20239;-78